Time,TemperatureF,DewpointF,PressureIn,WindDirection,WindDirectionDegrees,WindSpeedMPH,WindSpeedGustMPH,Humidity,HourlyPrecipIn,Conditions,Clouds,dailyrainin,SoftwareType,DateUTC
2013-09-04 00:00:00,56.0,54.3,29.92,SW,217,0.0,0.0,94,0.00,CLR,,0.00,WeatherDisplay:10.37,2013-09-04 05:00:00,
2013-09-04 00:05:00,56.0,54.6,29.92,SW,217,0.0,0.0,95,0.00,CLR,,0.00,WeatherDisplay:10.37,2013-09-04 05:05:00,
2013-09-04 00:10:00,56.2,54.8,29.92,SW,217,0.0,0.0,95,0.00,CLR,,0.00,WeatherDisplay:10.37,2013-09-04 05:10:00,
2013-09-04 00:15:00,55.9,54.2,29.92,SW,217,0.0,0.0,94,0.00,CLR,,0.00,WeatherDisplay:10.37,2013-09-04 05:15:00,
2013-09-04 00:20:00,55.6,53.9,29.92,SW,217,0.0,0.0,94,0.00,CLR,,0.00,WeatherDisplay:10.37,2013-09-04 05:20:00,
2013-09-04 00:25:00,55.4,54.0,29.92,SW,217,0.0,0.0,95,0.00,CLR,,0.00,WeatherDisplay:10.37,2013-09-04 05:25:00,
2013-09-04 00:30:00,55.4,54.0,29.92,SW,217,0.0,0.0,95,0.00,CLR,,0.00,WeatherDisplay:10.37,2013-09-04 05:30:00,
2013-09-04 00:35:00,55.3,53.9,29.92,SW,217,0.0,0.0,95,0.00,CLR,,0.00,WeatherDisplay:10.37,2013-09-04 05:35:00,
2013-09-04 00:40:00,55.3,53.9,29.92,SW,217,0.0,0.0,95,0.00,CLR,,0.00,WeatherDisplay:10.37,2013-09-04 05:40:00,
2013-09-04 00:45:00,55.3,54.2,29.92,SW,217,0.0,0.0,96,0.00,CLR,,0.00,WeatherDisplay:10.37,2013-09-04 05:45:00,
2013-09-04 00:50:00,55.1,54.0,29.92,SW,217,0.0,0.0,96,0.00,CLR,,0.00,WeatherDisplay:10.37,2013-09-04 05:50:00,
2013-09-04 00:55:00,55.0,53.9,29.92,SW,217,0.0,0.0,96,0.00,CLR,,0.00,WeatherDisplay:10.37,2013-09-04 05:55:00,
2013-09-04 01:00:00,54.8,53.7,29.92,SW,217,0.0,0.0,96,0.00,CLR,,0.00,WeatherDisplay:10.37,2013-09-04 06:00:00,
2013-09-04 01:05:00,54.8,53.7,29.92,SW,217,0.0,0.0,96,0.00,CLR,,0.00,WeatherDisplay:10.37,2013-09-04 06:05:00,
2013-09-04 01:10:00,54.8,53.7,29.92,SW,217,0.0,0.0,96,0.00,CLR,,0.00,WeatherDisplay:10.37,2013-09-04 06:10:00,
2013-09-04 01:15:00,54.7,53.6,29.92,SW,217,0.0,0.0,96,0.00,CLR,,0.00,WeatherDisplay:10.37,2013-09-04 06:15:00,
2013-09-04 01:20:00,54.7,53.9,29.92,SW,217,0.0,0.0,97,0.00,CLR,,0.00,WeatherDisplay:10.37,2013-09-04 06:20:00,
2013-09-04 01:25:00,54.7,53.9,29.92,SW,217,0.0,0.0,97,0.00,CLR,,0.00,WeatherDisplay:10.37,2013-09-04 06:25:00,
2013-09-04 01:30:00,54.7,53.9,29.92,SW,217,0.0,0.0,97,0.00,CLR,,0.00,WeatherDisplay:10.37,2013-09-04 06:30:00,
2013-09-04 01:35:00,54.5,53.7,29.92,SW,217,0.0,0.0,97,0.00,CLR,,0.00,WeatherDisplay:10.37,2013-09-04 06:35:00,
2013-09-04 01:40:00,54.4,53.6,29.92,SW,217,0.0,0.0,97,0.00,CLR,,0.00,WeatherDisplay:10.37,2013-09-04 06:40:00,
2013-09-04 01:45:00,54.2,53.4,29.92,SW,217,0.0,0.0,97,0.00,CLR,,0.00,WeatherDisplay:10.37,2013-09-04 06:45:00,
2013-09-04 01:50:00,54.3,53.5,29.92,SW,217,0.0,0.0,97,0.00,CLR,,0.00,WeatherDisplay:10.37,2013-09-04 06:50:00,
2013-09-04 01:55:00,54.4,53.8,29.92,SW,217,0.0,0.0,98,0.00,CLR,,0.00,WeatherDisplay:10.37,2013-09-04 06:55:00,
2013-09-04 02:00:00,54.5,53.9,29.92,SW,217,0.0,0.0,98,0.00,CLR,,0.00,WeatherDisplay:10.37,2013-09-04 07:00:00,
2013-09-04 02:05:00,54.5,53.9,29.92,SW,217,0.0,0.0,98,0.00,CLR,,0.00,WeatherDisplay:10.37,2013-09-04 07:05:00,
2013-09-04 02:10:00,54.4,53.8,29.92,SW,217,0.0,0.0,98,0.00,CLR,,0.00,WeatherDisplay:10.37,2013-09-04 07:10:00,
2013-09-04 02:15:00,54.4,53.8,29.92,SW,217,0.0,0.0,98,0.00,CLR,,0.00,WeatherDisplay:10.37,2013-09-04 07:15:00,
2013-09-04 02:20:00,54.1,53.6,29.93,SW,217,0.0,0.0,98,0.00,CLR,,0.00,WeatherDisplay:10.37,2013-09-04 07:20:00,
2013-09-04 02:25:00,53.9,53.3,29.93,SW,217,0.0,0.0,98,0.00,CLR,,0.00,WeatherDisplay:10.37,2013-09-04 07:25:00,
2013-09-04 02:30:00,53.9,53.3,29.93,SW,217,0.0,0.0,98,0.00,CLR,,0.00,WeatherDisplay:10.37,2013-09-04 07:30:00,
2013-09-04 02:35:00,53.9,53.3,29.93,SW,217,0.0,0.0,98,0.00,CLR,,0.00,WeatherDisplay:10.37,2013-09-04 07:35:00,
2013-09-04 02:40:00,53.8,53.2,29.93,SW,217,0.0,0.0,98,0.00,CLR,,0.00,WeatherDisplay:10.37,2013-09-04 07:40:00,
2013-09-04 02:45:00,53.8,53.2,29.93,SW,217,0.0,0.0,98,0.00,CLR,,0.00,WeatherDisplay:10.37,2013-09-04 07:45:00,
2013-09-04 02:50:00,53.8,53.2,29.93,SW,217,0.0,0.0,98,0.00,CLR,,0.00,WeatherDisplay:10.37,2013-09-04 07:50:00,
2013-09-04 02:55:00,53.6,53.0,29.93,SW,217,0.0,0.0,98,0.00,CLR,,0.00,WeatherDisplay:10.37,2013-09-04 07:55:00,
2013-09-04 03:00:00,53.6,53.0,29.93,SW,217,0.0,0.0,98,0.00,CLR,,0.00,WeatherDisplay:10.37,2013-09-04 08:00:00,
2013-09-04 03:05:00,53.5,53.2,29.93,SW,217,0.0,0.0,99,0.00,CLR,,0.00,WeatherDisplay:10.37,2013-09-04 08:05:00,
2013-09-04 03:10:00,53.5,53.2,29.93,SW,217,0.0,0.0,99,0.00,CLR,,0.00,WeatherDisplay:10.37,2013-09-04 08:10:00,
2013-09-04 03:15:00,53.5,53.2,29.93,SW,217,0.0,0.0,99,0.00,CLR,,0.00,WeatherDisplay:10.37,2013-09-04 08:15:00,
2013-09-04 03:20:00,53.5,53.2,29.93,SW,217,0.0,0.0,99,0.00,CLR,,0.00,WeatherDisplay:10.37,2013-09-04 08:20:00,
2013-09-04 03:25:00,53.5,53.2,29.93,SW,217,0.0,0.0,99,0.00,CLR,,0.00,WeatherDisplay:10.37,2013-09-04 08:25:00,
2013-09-04 03:30:00,53.3,53.0,29.93,SW,217,0.0,0.0,99,0.00,CLR,,0.00,WeatherDisplay:10.37,2013-09-04 08:30:00,
2013-09-04 03:35:00,53.3,53.0,29.94,SW,217,0.0,0.0,99,0.00,CLR,,0.00,WeatherDisplay:10.37,2013-09-04 08:35:00,
2013-09-04 03:40:00,53.2,52.9,29.94,SW,217,0.0,0.0,99,0.00,CLR,,0.00,WeatherDisplay:10.37,2013-09-04 08:40:00,
2013-09-04 03:45:00,53.2,52.9,29.94,SW,217,0.0,0.0,99,0.00,CLR,,0.00,WeatherDisplay:10.37,2013-09-04 08:45:00,
2013-09-04 03:50:00,53.1,52.8,29.94,SW,217,0.0,0.0,99,0.00,CLR,,0.00,WeatherDisplay:10.37,2013-09-04 08:50:00,
2013-09-04 03:55:00,52.8,52.5,29.94,SW,217,0.0,0.0,99,0.00,CLR,,0.00,WeatherDisplay:10.37,2013-09-04 08:55:00,
2013-09-04 04:00:00,52.6,52.3,29.94,SW,217,0.0,0.0,99,0.00,CLR,,0.00,WeatherDisplay:10.37,2013-09-04 09:00:00,
2013-09-04 04:05:00,52.6,52.3,29.94,SW,217,0.0,0.0,99,0.00,CLR,,0.00,WeatherDisplay:10.37,2013-09-04 09:05:00,
2013-09-04 04:10:00,52.8,52.5,29.94,SW,217,0.0,0.0,99,0.00,CLR,,0.00,WeatherDisplay:10.37,2013-09-04 09:10:00,
2013-09-04 04:15:00,52.8,52.8,29.94,SW,217,0.0,0.0,100,0.00,CLR,,0.00,WeatherDisplay:10.37,2013-09-04 09:15:00,
2013-09-04 04:20:00,52.8,52.8,29.94,SW,217,0.0,0.0,100,0.00,CLR,,0.00,WeatherDisplay:10.37,2013-09-04 09:20:00,
2013-09-04 04:25:00,52.8,52.8,29.94,SW,217,0.0,0.0,100,0.00,CLR,,0.00,WeatherDisplay:10.37,2013-09-04 09:25:00,
2013-09-04 04:30:00,52.8,52.8,29.94,SW,217,0.0,0.0,100,0.00,CLR,,0.00,WeatherDisplay:10.37,2013-09-04 09:30:00,
2013-09-04 04:35:00,52.8,52.8,29.94,SW,217,0.0,0.0,100,0.00,CLR,,0.00,WeatherDisplay:10.37,2013-09-04 09:35:00,
2013-09-04 04:40:00,52.8,52.8,29.94,SW,217,0.0,0.0,100,0.00,CLR,,0.00,WeatherDisplay:10.37,2013-09-04 09:40:00,
2013-09-04 04:45:00,52.8,52.8,29.94,SW,217,0.0,0.0,100,0.00,CLR,,0.00,WeatherDisplay:10.37,2013-09-04 09:45:00,
2013-09-04 04:50:00,52.8,52.8,29.94,SW,217,0.0,0.0,100,0.00,CLR,,0.00,WeatherDisplay:10.37,2013-09-04 09:50:00,
2013-09-04 04:55:00,52.8,52.8,29.94,SW,217,0.0,0.0,100,0.00,CLR,,0.00,WeatherDisplay:10.37,2013-09-04 09:55:00,
2013-09-04 05:00:00,52.8,52.8,29.94,SW,217,0.0,0.0,100,0.00,CLR,,0.00,WeatherDisplay:10.37,2013-09-04 10:00:00,
2013-09-04 05:05:00,52.8,52.8,29.95,SW,217,0.0,0.0,100,0.00,CLR,,0.00,WeatherDisplay:10.37,2013-09-04 10:05:00,
2013-09-04 05:10:00,52.8,52.8,29.95,SW,217,0.0,0.0,100,0.00,CLR,,0.00,WeatherDisplay:10.37,2013-09-04 10:10:00,
2013-09-04 05:15:00,52.8,52.8,29.95,SW,217,0.0,0.0,100,0.00,CLR,,0.00,WeatherDisplay:10.37,2013-09-04 10:15:00,
2013-09-04 05:20:00,52.8,52.8,29.95,SW,217,0.0,0.0,100,0.00,CLR,,0.00,WeatherDisplay:10.37,2013-09-04 10:20:00,
2013-09-04 05:25:00,52.8,52.8,29.95,SW,217,0.0,0.0,100,0.00,CLR,,0.00,WeatherDisplay:10.37,2013-09-04 10:25:00,
2013-09-04 05:30:00,52.8,52.8,29.95,SW,217,0.0,0.0,100,0.00,CLR,,0.00,WeatherDisplay:10.37,2013-09-04 10:30:00,
2013-09-04 05:35:00,52.8,52.8,29.96,SW,217,0.0,0.0,100,0.00,CLR,,0.00,WeatherDisplay:10.37,2013-09-04 10:35:00,
2013-09-04 05:40:00,52.6,52.6,29.96,SW,217,0.0,0.0,100,0.00,CLR,,0.00,WeatherDisplay:10.37,2013-09-04 10:40:00,
2013-09-04 05:45:00,52.6,52.6,29.96,SW,217,0.0,0.0,100,0.00,CLR,,0.00,WeatherDisplay:10.37,2013-09-04 10:45:00,
2013-09-04 05:50:00,52.5,52.5,29.96,SW,217,0.0,0.0,100,0.00,CLR,,0.00,WeatherDisplay:10.37,2013-09-04 10:50:00,
2013-09-04 05:55:00,52.5,52.5,29.96,SW,217,0.0,0.0,100,0.00,CLR,,0.00,WeatherDisplay:10.37,2013-09-04 10:55:00,
2013-09-04 06:00:00,52.5,52.5,29.96,SW,217,0.0,0.0,100,0.00,CLR,,0.00,WeatherDisplay:10.37,2013-09-04 11:00:00,
2013-09-04 06:05:00,52.6,52.6,29.96,SW,217,0.0,0.0,100,0.00,CLR,,0.00,WeatherDisplay:10.37,2013-09-04 11:05:00,
2013-09-04 06:10:00,52.6,52.6,29.96,SW,217,0.0,0.0,100,0.00,CLR,,0.00,WeatherDisplay:10.37,2013-09-04 11:10:00,
2013-09-04 06:15:00,52.8,52.8,29.96,SW,217,0.0,0.0,100,0.00,CLR,,0.00,WeatherDisplay:10.37,2013-09-04 11:15:00,
2013-09-04 06:20:00,52.9,52.9,29.97,SW,217,0.0,0.0,100,0.00,CLR,,0.00,WeatherDisplay:10.37,2013-09-04 11:20:00,
2013-09-04 06:25:00,53.1,53.1,29.97,SW,217,0.0,0.0,100,0.00,CLR,,0.00,WeatherDisplay:10.37,2013-09-04 11:25:00,
2013-09-04 06:30:00,53.1,53.1,29.97,SW,217,0.0,0.0,100,0.00,CLR,,0.00,WeatherDisplay:10.37,2013-09-04 11:30:00,
2013-09-04 06:35:00,53.1,53.1,29.97,SW,217,0.0,0.0,100,0.00,CLR,,0.00,WeatherDisplay:10.37,2013-09-04 11:35:00,
2013-09-04 06:40:00,53.1,53.1,29.97,SW,217,0.0,0.0,100,0.00,CLR,,0.00,WeatherDisplay:10.37,2013-09-04 11:40:00,
2013-09-04 06:45:00,53.2,53.2,29.97,SW,217,0.0,0.0,100,0.00,CLR,,0.00,WeatherDisplay:10.37,2013-09-04 11:45:00,
2013-09-04 06:50:00,53.4,53.4,29.97,SW,217,0.0,0.0,100,0.00,CLR,,0.00,WeatherDisplay:10.37,2013-09-04 11:50:00,
2013-09-04 06:55:00,53.6,53.6,29.97,SW,217,0.0,0.0,100,0.00,CLR,,0.00,WeatherDisplay:10.37,2013-09-04 11:55:00,
2013-09-04 07:00:00,53.8,53.8,29.97,SW,217,0.0,0.0,100,0.00,CLR,,0.00,WeatherDisplay:10.37,2013-09-04 12:00:00,
2013-09-04 07:05:00,54.1,54.1,29.97,SW,217,0.0,0.0,100,0.00,CLR,,0.00,WeatherDisplay:10.37,2013-09-04 12:05:00,
2013-09-04 07:10:00,54.2,54.2,29.97,SW,217,0.0,0.0,100,0.00,CLR,,0.00,WeatherDisplay:10.37,2013-09-04 12:10:00,
2013-09-04 07:15:00,54.5,54.5,29.97,SW,217,0.0,0.0,100,0.00,CLR,,0.00,WeatherDisplay:10.37,2013-09-04 12:15:00,
2013-09-04 07:20:00,54.7,54.7,29.97,SW,217,0.0,0.0,100,0.00,CLR,,0.00,WeatherDisplay:10.37,2013-09-04 12:20:00,
2013-09-04 07:25:00,54.8,54.8,29.97,SW,217,0.0,0.0,100,0.00,CLR,,0.00,WeatherDisplay:10.37,2013-09-04 12:25:00,
2013-09-04 07:30:00,55.0,55.0,29.97,SW,217,0.0,0.0,100,0.00,CLR,,0.00,WeatherDisplay:10.37,2013-09-04 12:30:00,
2013-09-04 07:35:00,55.1,55.1,29.98,SW,217,0.0,0.0,100,0.00,CLR,,0.00,WeatherDisplay:10.37,2013-09-04 12:35:00,
2013-09-04 07:40:00,55.7,55.7,29.98,SW,217,0.0,0.0,100,0.00,CLR,,0.00,WeatherDisplay:10.37,2013-09-04 12:40:00,
2013-09-04 07:45:00,56.0,56.0,29.98,SW,217,0.0,0.0,100,0.00,CLR,,0.00,WeatherDisplay:10.37,2013-09-04 12:45:00,
2013-09-04 07:50:00,56.2,56.2,29.97,SW,217,0.0,0.0,100,0.00,CLR,,0.00,WeatherDisplay:10.37,2013-09-04 12:50:00,
2013-09-04 07:55:00,56.5,56.5,29.97,SW,217,0.0,0.0,100,0.00,CLR,,0.00,WeatherDisplay:10.37,2013-09-04 12:55:00,
2013-09-04 08:00:00,56.6,56.6,29.97,SW,217,0.0,0.0,100,0.00,CLR,,0.00,WeatherDisplay:10.37,2013-09-04 13:00:00,
2013-09-04 08:05:00,57.0,57.0,29.98,SW,217,0.0,0.0,100,0.00,CLR,,0.00,WeatherDisplay:10.37,2013-09-04 13:05:00,
2013-09-04 08:10:00,57.5,57.5,29.98,SW,217,0.0,0.0,100,0.00,CLR,,0.00,WeatherDisplay:10.37,2013-09-04 13:10:00,
2013-09-04 08:15:00,57.8,57.5,29.98,SW,217,0.0,0.0,99,0.00,CLR,,0.00,WeatherDisplay:10.37,2013-09-04 13:15:00,
2013-09-04 08:20:00,58.2,57.6,29.97,SW,217,0.0,0.0,98,0.00,CLR,,0.00,WeatherDisplay:10.37,2013-09-04 13:20:00,
2013-09-04 08:25:00,58.6,57.4,29.97,SW,217,0.0,0.0,96,0.00,CLR,,0.00,WeatherDisplay:10.37,2013-09-04 13:25:00,
2013-09-04 08:30:00,58.9,57.8,29.97,SW,217,0.0,0.0,96,0.00,CLR,,0.00,WeatherDisplay:10.37,2013-09-04 13:30:00,
2013-09-04 08:35:00,59.3,57.8,29.98,SW,217,0.0,0.0,95,0.00,CLR,,0.00,WeatherDisplay:10.37,2013-09-04 13:35:00,
2013-09-04 08:40:00,59.8,58.1,29.98,SW,217,0.0,0.0,94,0.00,CLR,,0.00,WeatherDisplay:10.37,2013-09-04 13:40:00,
2013-09-04 08:45:00,60.2,58.2,29.98,SW,217,0.0,0.0,93,0.00,CLR,,0.00,WeatherDisplay:10.37,2013-09-04 13:45:00,
2013-09-04 08:50:00,60.8,58.5,29.98,SW,217,0.0,0.0,92,0.00,CLR,,0.00,WeatherDisplay:10.37,2013-09-04 13:50:00,
2013-09-04 08:55:00,61.4,58.4,29.98,SW,217,0.0,0.0,90,0.00,CLR,,0.00,WeatherDisplay:10.37,2013-09-04 13:55:00,
2013-09-04 09:00:00,62.0,58.7,29.98,SW,217,0.0,0.0,89,0.00,CLR,,0.00,WeatherDisplay:10.37,2013-09-04 14:00:00,
2013-09-04 09:05:00,62.6,58.7,29.98,SW,217,0.0,0.0,87,0.00,CLR,,0.00,WeatherDisplay:10.37,2013-09-04 14:05:00,
2013-09-04 09:10:00,63.3,58.7,29.98,SW,217,0.0,0.0,85,0.00,CLR,,0.00,WeatherDisplay:10.37,2013-09-04 14:10:00,
2013-09-04 09:15:00,63.9,58.6,29.98,SW,217,0.0,0.0,83,0.00,CLR,,0.00,WeatherDisplay:10.37,2013-09-04 14:15:00,
2013-09-04 09:20:00,64.3,59.0,29.98,SW,217,0.0,0.0,83,0.00,CLR,,0.00,WeatherDisplay:10.37,2013-09-04 14:20:00,
2013-09-04 09:25:00,64.8,59.2,29.98,SW,217,0.0,0.0,82,0.00,CLR,,0.00,WeatherDisplay:10.37,2013-09-04 14:25:00,
2013-09-04 09:30:00,65.2,59.3,29.98,SW,217,0.0,0.0,81,0.00,CLR,,0.00,WeatherDisplay:10.37,2013-09-04 14:30:00,
2013-09-04 09:35:00,65.8,59.1,29.98,SW,217,0.0,0.0,79,0.00,CLR,,0.00,WeatherDisplay:10.37,2013-09-04 14:35:00,
2013-09-04 09:40:00,66.4,59.7,29.98,SW,217,0.0,0.0,79,0.00,CLR,,0.00,WeatherDisplay:10.37,2013-09-04 14:40:00,
2013-09-04 09:45:00,66.9,59.8,29.98,SW,217,0.0,0.0,78,0.00,CLR,,0.00,WeatherDisplay:10.37,2013-09-04 14:45:00,
2013-09-04 09:50:00,67.4,59.9,29.98,West,271,0.0,0.0,77,0.00,CLR,,0.00,WeatherDisplay:10.37,2013-09-04 14:50:00,
2013-09-04 09:55:00,67.9,60.4,29.98,NW,313,0.0,0.0,77,0.00,CLR,,0.00,WeatherDisplay:10.37,2013-09-04 14:55:00,
2013-09-04 10:00:00,68.3,59.7,29.98,NW,313,0.0,0.0,74,0.00,CLR,,0.00,WeatherDisplay:10.37,2013-09-04 15:00:00,
2013-09-04 10:05:00,69.0,60.4,29.98,NW,313,0.0,0.0,74,0.00,CLR,,0.00,WeatherDisplay:10.37,2013-09-04 15:05:00,
2013-09-04 10:10:00,69.6,60.2,29.98,NW,307,0.0,0.0,72,0.00,CLR,,0.00,WeatherDisplay:10.37,2013-09-04 15:10:00,
2013-09-04 10:15:00,69.9,59.7,29.98,WNW,298,0.0,0.0,70,0.00,CLR,,0.00,WeatherDisplay:10.37,2013-09-04 15:15:00,
2013-09-04 10:20:00,70.3,60.4,29.99,WNW,294,0.0,0.0,71,0.00,CLR,,0.00,WeatherDisplay:10.37,2013-09-04 15:20:00,
2013-09-04 10:25:00,70.7,60.4,29.99,NW,314,0.0,0.0,70,0.00,CLR,,0.00,WeatherDisplay:10.37,2013-09-04 15:25:00,
2013-09-04 10:30:00,71.1,60.8,29.99,North,358,0.0,0.0,70,0.00,CLR,,0.00,WeatherDisplay:10.37,2013-09-04 15:30:00,
2013-09-04 10:35:00,71.6,60.9,29.98,NNW,346,0.0,0.0,69,0.00,CLR,,0.00,WeatherDisplay:10.37,2013-09-04 15:35:00,
2013-09-04 10:40:00,71.8,59.8,29.98,WNW,297,0.0,0.0,66,0.00,CLR,,0.00,WeatherDisplay:10.37,2013-09-04 15:40:00,
2013-09-04 10:45:00,72.0,61.3,29.98,West,275,0.0,0.0,69,0.00,CLR,,0.00,WeatherDisplay:10.37,2013-09-04 15:45:00,
2013-09-04 10:50:00,72.4,60.9,29.99,WNW,286,0.0,0.0,67,0.00,CLR,,0.00,WeatherDisplay:10.37,2013-09-04 15:50:00,
2013-09-04 10:55:00,72.8,62.1,29.99,WNW,296,0.0,0.0,69,0.00,CLR,,0.00,WeatherDisplay:10.37,2013-09-04 15:55:00,
2013-09-04 11:00:00,73.2,62.0,29.99,WNW,296,0.0,0.0,68,0.00,CLR,,0.00,WeatherDisplay:10.37,2013-09-04 16:00:00,
2013-09-04 11:05:00,73.6,62.4,29.98,WNW,297,0.0,0.0,68,0.00,CLR,,0.00,WeatherDisplay:10.37,2013-09-04 16:05:00,
2013-09-04 11:10:00,74.0,61.9,29.98,WNW,282,0.0,0.0,66,0.00,CLR,,0.00,WeatherDisplay:10.37,2013-09-04 16:10:00,
2013-09-04 11:15:00,74.4,61.4,29.98,West,280,0.0,0.0,64,0.00,CLR,,0.00,WeatherDisplay:10.37,2013-09-04 16:15:00,
2013-09-04 11:20:00,74.6,61.2,29.98,NW,311,0.0,0.0,63,0.00,CLR,,0.00,WeatherDisplay:10.37,2013-09-04 16:20:00,
2013-09-04 11:25:00,74.9,61.9,29.98,North,351,0.0,0.0,64,0.00,CLR,,0.00,WeatherDisplay:10.37,2013-09-04 16:25:00,
2013-09-04 11:30:00,75.1,62.5,29.98,NNW,347,0.0,0.0,65,0.00,CLR,,0.00,WeatherDisplay:10.37,2013-09-04 16:30:00,
2013-09-04 11:35:00,75.3,62.3,29.98,NW,317,0.0,0.0,64,0.00,CLR,,0.00,WeatherDisplay:10.37,2013-09-04 16:35:00,
2013-09-04 11:40:00,75.4,62.4,29.98,WNW,301,0.0,0.0,64,0.00,CLR,,0.00,WeatherDisplay:10.37,2013-09-04 16:40:00,
2013-09-04 11:45:00,76.1,63.0,29.98,West,278,0.0,0.0,64,0.00,CLR,,0.00,WeatherDisplay:10.37,2013-09-04 16:45:00,
2013-09-04 11:50:00,76.7,62.7,29.98,WSW,255,0.0,0.0,62,0.00,CLR,,0.00,WeatherDisplay:10.37,2013-09-04 16:50:00,
2013-09-04 11:55:00,76.8,63.3,29.98,WNW,283,0.0,0.0,63,0.00,CLR,,0.00,WeatherDisplay:10.37,2013-09-04 16:55:00,
2013-09-04 12:00:00,77.0,63.0,29.98,NW,313,0.0,0.0,62,0.00,CLR,,0.00,WeatherDisplay:10.37,2013-09-04 17:00:00,
2013-09-04 12:05:00,76.6,62.2,29.98,West,264,0.0,0.0,61,0.00,CLR,,0.00,WeatherDisplay:10.37,2013-09-04 17:05:00,
2013-09-04 12:10:00,76.3,61.9,29.98,WSW,248,0.0,0.0,61,0.00,CLR,,0.00,WeatherDisplay:10.37,2013-09-04 17:10:00,
2013-09-04 12:15:00,76.8,63.3,29.98,WSW,245,0.0,0.0,63,0.00,CLR,,0.00,WeatherDisplay:10.37,2013-09-04 17:15:00,
2013-09-04 12:20:00,77.2,62.2,29.98,SSE,166,0.0,0.0,60,0.00,CLR,,0.00,WeatherDisplay:10.37,2013-09-04 17:20:00,
2013-09-04 12:25:00,77.6,63.5,29.98,ESE,122,0.0,0.0,62,0.00,CLR,,0.00,WeatherDisplay:10.37,2013-09-04 17:25:00,
2013-09-04 12:30:00,78.0,63.4,29.98,SW,219,0.0,0.0,61,0.00,CLR,,0.00,WeatherDisplay:10.37,2013-09-04 17:30:00,
2013-09-04 12:35:00,78.1,62.1,29.98,WNW,282,0.0,0.0,58,0.00,CLR,,0.00,WeatherDisplay:10.37,2013-09-04 17:35:00,
2013-09-04 12:40:00,77.4,61.9,29.98,West,269,0.0,0.0,59,0.00,CLR,,0.00,WeatherDisplay:10.37,2013-09-04 17:40:00,
2013-09-04 12:45:00,77.2,62.2,29.98,NW,304,0.0,0.0,60,0.00,CLR,,0.00,WeatherDisplay:10.37,2013-09-04 17:45:00,
2013-09-04 12:50:00,77.4,63.4,29.99,NW,316,0.0,0.0,62,0.00,CLR,,0.00,WeatherDisplay:10.37,2013-09-04 17:50:00,
2013-09-04 12:55:00,77.4,62.4,29.99,NW,317,0.0,0.0,60,0.00,CLR,,0.00,WeatherDisplay:10.37,2013-09-04 17:55:00,
2013-09-04 13:00:00,77.4,62.4,29.99,NW,318,0.0,0.0,60,0.00,CLR,,0.00,WeatherDisplay:10.37,2013-09-04 18:00:00,
2013-09-04 13:05:00,77.4,62.4,29.98,NW,318,0.0,0.0,60,0.00,CLR,,0.00,WeatherDisplay:10.37,2013-09-04 18:05:00,
2013-09-04 13:10:00,77.6,62.1,29.98,NW,318,0.0,0.0,59,0.00,CLR,,0.00,WeatherDisplay:10.37,2013-09-04 18:10:00,
2013-09-04 13:15:00,77.9,64.3,29.98,NW,318,0.0,0.0,63,0.00,CLR,,0.00,WeatherDisplay:10.37,2013-09-04 18:15:00,
2013-09-04 13:20:00,78.3,62.8,29.99,NW,318,0.0,0.0,59,0.00,CLR,,0.00,WeatherDisplay:10.37,2013-09-04 18:20:00,
2013-09-04 13:25:00,78.1,62.6,29.99,NW,318,0.0,0.0,59,0.00,CLR,,0.00,WeatherDisplay:10.37,2013-09-04 18:25:00,
2013-09-04 13:30:00,77.9,63.4,29.99,NW,318,0.0,0.0,61,0.00,CLR,,0.00,WeatherDisplay:10.37,2013-09-04 18:30:00,
2013-09-04 13:35:00,78.1,62.1,29.98,NW,318,0.0,0.0,58,0.00,CLR,,0.00,WeatherDisplay:10.37,2013-09-04 18:35:00,
2013-09-04 13:40:00,77.9,61.9,29.98,NW,318,0.0,0.0,58,0.00,CLR,,0.00,WeatherDisplay:10.37,2013-09-04 18:40:00,
2013-09-04 13:45:00,77.9,62.4,29.98,NW,318,0.0,0.0,59,0.00,CLR,,0.00,WeatherDisplay:10.37,2013-09-04 18:45:00,
2013-09-04 13:50:00,77.9,61.4,29.98,NW,318,0.0,0.0,57,0.00,CLR,,0.00,WeatherDisplay:10.37,2013-09-04 18:50:00,
2013-09-04 13:55:00,78.2,63.7,29.98,NW,318,0.0,0.0,61,0.00,CLR,,0.00,WeatherDisplay:10.37,2013-09-04 18:55:00,
2013-09-04 14:00:00,78.6,64.0,29.98,NW,318,0.0,0.0,61,0.00,CLR,,0.00,WeatherDisplay:10.37,2013-09-04 19:00:00,
2013-09-04 14:05:00,78.6,62.6,29.97,NW,317,0.0,0.0,58,0.00,CLR,,0.00,WeatherDisplay:10.37,2013-09-04 19:05:00,
2013-09-04 14:10:00,78.6,62.1,29.97,NNW,330,0.0,0.0,57,0.00,CLR,,0.00,WeatherDisplay:10.37,2013-09-04 19:10:00,
2013-09-04 14:15:00,78.6,62.1,29.97,North,352,0.0,0.0,57,0.00,CLR,,0.00,WeatherDisplay:10.37,2013-09-04 19:15:00,
2013-09-04 14:20:00,78.8,63.8,29.97,North,1,0.0,0.0,60,0.00,CLR,,0.00,WeatherDisplay:10.37,2013-09-04 19:20:00,
2013-09-04 14:25:00,79.2,65.5,29.97,North,4,0.0,0.0,63,0.00,CLR,,0.00,WeatherDisplay:10.37,2013-09-04 19:25:00,
2013-09-04 14:30:00,79.4,62.8,29.97,North,5,0.0,0.0,57,0.00,CLR,,0.00,WeatherDisplay:10.37,2013-09-04 19:30:00,
2013-09-04 14:35:00,79.9,66.2,29.97,North,359,0.0,0.0,63,0.00,CLR,,0.00,WeatherDisplay:10.37,2013-09-04 19:35:00,
2013-09-04 14:40:00,80.5,63.9,29.97,NNW,341,0.0,0.0,57,0.00,CLR,,0.00,WeatherDisplay:10.37,2013-09-04 19:40:00,
2013-09-04 14:45:00,80.3,63.7,29.97,NNW,331,0.0,0.0,57,0.00,CLR,,0.00,WeatherDisplay:10.37,2013-09-04 19:45:00,
2013-09-04 14:50:00,80.1,65.0,29.97,NW,320,0.0,0.0,60,0.00,CLR,,0.00,WeatherDisplay:10.37,2013-09-04 19:50:00,
2013-09-04 14:55:00,80.1,64.0,29.97,SW,222,0.0,0.0,58,0.00,CLR,,0.00,WeatherDisplay:10.37,2013-09-04 19:55:00,
2013-09-04 15:00:00,80.3,64.2,29.97,SW,231,0.0,0.0,58,0.00,CLR,,0.00,WeatherDisplay:10.37,2013-09-04 20:00:00,
2013-09-04 15:05:00,80.7,64.5,29.96,WSW,252,0.0,0.0,58,0.00,CLR,,0.00,WeatherDisplay:10.37,2013-09-04 20:05:00,
2013-09-04 15:10:00,81.0,65.4,29.96,SW,235,0.0,0.0,59,0.00,CLR,,0.00,WeatherDisplay:10.37,2013-09-04 20:10:00,
2013-09-04 15:15:00,81.2,63.5,29.96,SW,231,0.0,0.0,55,0.00,CLR,,0.00,WeatherDisplay:10.37,2013-09-04 20:15:00,
2013-09-04 15:20:00,81.2,63.5,29.96,SW,229,0.0,0.0,55,0.00,CLR,,0.00,WeatherDisplay:10.37,2013-09-04 20:20:00,
2013-09-04 15:25:00,81.1,63.9,29.96,SW,227,0.0,0.0,56,0.00,CLR,,0.00,WeatherDisplay:10.37,2013-09-04 20:25:00,
2013-09-04 15:30:00,80.9,63.7,29.96,SW,227,0.0,0.0,56,0.00,CLR,,0.00,WeatherDisplay:10.37,2013-09-04 20:30:00,
2013-09-04 15:35:00,80.9,63.7,29.95,WNW,303,0.0,0.0,56,0.00,CLR,,0.00,WeatherDisplay:10.37,2013-09-04 20:35:00,
2013-09-04 15:40:00,81.1,64.4,29.95,WNW,298,0.0,0.0,57,0.00,CLR,,0.00,WeatherDisplay:10.37,2013-09-04 20:40:00,
2013-09-04 15:45:00,81.2,64.0,29.95,SW,230,0.0,0.0,56,0.00,CLR,,0.00,WeatherDisplay:10.37,2013-09-04 20:45:00,
2013-09-04 15:50:00,81.2,64.0,29.95,SW,224,0.0,0.0,56,0.00,CLR,,0.00,WeatherDisplay:10.37,2013-09-04 20:50:00,
2013-09-04 15:55:00,81.1,64.9,29.95,West,259,0.0,0.0,58,0.00,CLR,,0.00,WeatherDisplay:10.37,2013-09-04 20:55:00,
2013-09-04 16:00:00,81.1,63.9,29.95,WNW,290,0.0,0.0,56,0.00,CLR,,0.00,WeatherDisplay:10.37,2013-09-04 21:00:00,
2013-09-04 16:05:00,81.2,65.0,29.95,West,260,0.0,0.0,58,0.00,CLR,,0.00,WeatherDisplay:10.37,2013-09-04 21:05:00,
2013-09-04 16:10:00,81.2,65.0,29.95,West,272,0.0,0.0,58,0.00,CLR,,0.00,WeatherDisplay:10.37,2013-09-04 21:10:00,
2013-09-04 16:15:00,81.2,63.0,29.95,NNE,18,0.0,0.0,54,0.00,CLR,,0.00,WeatherDisplay:10.37,2013-09-04 21:15:00,
2013-09-04 16:20:00,81.1,62.3,29.95,NNE,21,0.0,0.0,53,0.00,CLR,,0.00,WeatherDisplay:10.37,2013-09-04 21:20:00,
2013-09-04 16:25:00,81.2,64.0,29.95,North,10,0.0,0.0,56,0.00,CLR,,0.00,WeatherDisplay:10.37,2013-09-04 21:25:00,
2013-09-04 16:30:00,81.4,64.2,29.95,NNW,337,0.0,0.0,56,0.00,CLR,,0.00,WeatherDisplay:10.37,2013-09-04 21:30:00,
2013-09-04 16:35:00,81.6,63.9,29.95,NW,321,0.0,0.0,55,0.00,CLR,,0.00,WeatherDisplay:10.37,2013-09-04 21:35:00,
2013-09-04 16:40:00,81.4,62.6,29.95,NW,321,0.0,0.0,53,0.00,CLR,,0.00,WeatherDisplay:10.37,2013-09-04 21:40:00,
2013-09-04 16:45:00,81.6,64.9,29.95,NW,321,0.0,0.0,57,0.00,CLR,,0.00,WeatherDisplay:10.37,2013-09-04 21:45:00,
2013-09-04 16:50:00,81.6,63.3,29.94,NW,321,0.0,0.0,54,0.00,CLR,,0.00,WeatherDisplay:10.37,2013-09-04 21:50:00,
2013-09-04 16:55:00,81.6,63.3,29.94,NW,321,0.0,0.0,54,0.00,CLR,,0.00,WeatherDisplay:10.37,2013-09-04 21:55:00,
2013-09-04 17:00:00,81.6,62.8,29.94,NW,321,0.0,0.0,53,0.00,CLR,,0.00,WeatherDisplay:10.37,2013-09-04 22:00:00,
2013-09-04 17:05:00,81.8,63.5,29.94,NW,321,0.0,0.0,54,0.00,CLR,,0.00,WeatherDisplay:10.37,2013-09-04 22:05:00,
2013-09-04 17:10:00,81.8,63.0,29.94,NW,320,0.0,0.0,53,0.00,CLR,,0.00,WeatherDisplay:10.37,2013-09-04 22:10:00,
2013-09-04 17:15:00,81.8,63.0,29.94,NW,319,0.0,0.0,53,0.00,CLR,,0.00,WeatherDisplay:10.37,2013-09-04 22:15:00,
2013-09-04 17:20:00,81.8,63.0,29.94,NW,318,0.0,0.0,53,0.00,CLR,,0.00,WeatherDisplay:10.37,2013-09-04 22:20:00,
2013-09-04 17:25:00,81.8,61.9,29.94,NW,322,0.0,0.0,51,0.00,CLR,,0.00,WeatherDisplay:10.37,2013-09-04 22:25:00,
2013-09-04 17:30:00,81.8,64.1,29.94,NNW,329,0.0,0.0,55,0.00,CLR,,0.00,WeatherDisplay:10.37,2013-09-04 22:30:00,
2013-09-04 17:35:00,81.8,63.0,29.94,NNW,332,0.0,0.0,53,0.00,CLR,,0.00,WeatherDisplay:10.37,2013-09-04 22:35:00,
2013-09-04 17:40:00,81.8,64.1,29.94,NNW,332,0.0,0.0,55,0.00,CLR,,0.00,WeatherDisplay:10.37,2013-09-04 22:40:00,
2013-09-04 17:45:00,81.8,65.1,29.94,NNW,332,0.0,0.0,57,0.00,CLR,,0.00,WeatherDisplay:10.37,2013-09-04 22:45:00,
2013-09-04 17:50:00,81.6,65.9,29.93,NNW,332,0.0,0.0,59,0.00,CLR,,0.00,WeatherDisplay:10.37,2013-09-04 22:50:00,
2013-09-04 17:55:00,81.5,66.3,29.93,NNW,332,0.0,0.0,60,0.00,CLR,,0.00,WeatherDisplay:10.37,2013-09-04 22:55:00,
2013-09-04 18:00:00,81.2,66.5,29.93,NNW,332,0.0,0.0,61,0.00,CLR,,0.00,WeatherDisplay:10.37,2013-09-04 23:00:00,
2013-09-04 18:05:00,80.9,66.7,29.94,NNW,332,0.0,0.0,62,0.00,CLR,,0.00,WeatherDisplay:10.37,2013-09-04 23:05:00,
2013-09-04 18:10:00,80.5,66.7,29.94,NNW,332,0.0,0.0,63,0.00,CLR,,0.00,WeatherDisplay:10.37,2013-09-04 23:10:00,
2013-09-04 18:15:00,80.1,66.4,29.94,NNW,332,0.0,0.0,63,0.00,CLR,,0.00,WeatherDisplay:10.37,2013-09-04 23:15:00,
2013-09-04 18:20:00,79.8,66.5,29.94,NNW,332,0.0,0.0,64,0.00,CLR,,0.00,WeatherDisplay:10.37,2013-09-04 23:20:00,
2013-09-04 18:25:00,79.4,67.1,29.94,NNW,330,0.0,0.0,66,0.00,CLR,,0.00,WeatherDisplay:10.37,2013-09-04 23:25:00,
2013-09-04 18:30:00,79.1,66.7,29.94,NW,322,0.0,0.0,66,0.00,CLR,,0.00,WeatherDisplay:10.37,2013-09-04 23:30:00,
2013-09-04 18:35:00,78.7,66.8,29.94,NW,312,0.0,0.0,67,0.00,CLR,,0.00,WeatherDisplay:10.37,2013-09-04 23:35:00,
2013-09-04 18:40:00,78.3,66.9,29.94,NW,309,0.0,0.0,68,0.00,CLR,,0.00,WeatherDisplay:10.37,2013-09-04 23:40:00,
2013-09-04 18:45:00,77.7,66.7,29.94,NW,309,0.0,0.0,69,0.00,CLR,,0.00,WeatherDisplay:10.37,2013-09-04 23:45:00,
2013-09-04 18:50:00,77.4,66.4,29.94,NW,309,0.0,0.0,69,0.00,CLR,,0.00,WeatherDisplay:10.37,2013-09-04 23:50:00,
2013-09-04 18:55:00,77.0,66.5,29.94,NW,309,0.0,0.0,70,0.00,CLR,,0.00,WeatherDisplay:10.37,2013-09-04 23:55:00,
2013-09-04 19:00:00,76.7,66.6,29.94,NW,309,0.0,0.0,71,0.00,CLR,,0.00,WeatherDisplay:10.37,2013-09-05 00:00:00,
2013-09-04 19:05:00,76.3,66.6,29.94,NW,309,0.0,0.0,72,0.00,CLR,,0.00,WeatherDisplay:10.37,2013-09-05 00:05:00,
2013-09-04 19:10:00,76.0,66.3,29.94,NW,309,0.0,0.0,72,0.00,CLR,,0.00,WeatherDisplay:10.37,2013-09-05 00:10:00,
2013-09-04 19:15:00,75.7,66.4,29.94,NW,309,0.0,0.0,73,0.00,CLR,,0.00,WeatherDisplay:10.37,2013-09-05 00:15:00,
2013-09-04 19:20:00,75.3,66.0,29.94,NW,309,0.0,0.0,73,0.00,CLR,,0.00,WeatherDisplay:10.37,2013-09-05 00:20:00,
2013-09-04 19:25:00,74.9,66.1,29.94,NW,309,0.0,0.0,74,0.00,CLR,,0.00,WeatherDisplay:10.37,2013-09-05 00:25:00,
2013-09-04 19:30:00,74.4,66.0,29.94,NW,309,0.0,0.0,75,0.00,CLR,,0.00,WeatherDisplay:10.37,2013-09-05 00:30:00,
2013-09-04 19:35:00,74.0,65.5,29.95,NW,311,0.0,0.0,75,0.00,CLR,,0.00,WeatherDisplay:10.37,2013-09-05 00:35:00,
2013-09-04 19:40:00,72.5,65.3,29.95,NNE,14,0.0,0.0,78,0.00,CLR,,0.00,WeatherDisplay:10.37,2013-09-05 00:40:00,
2013-09-04 19:45:00,72.1,65.2,29.95,ENE,62,0.0,0.0,79,0.00,CLR,,0.00,WeatherDisplay:10.37,2013-09-05 00:45:00,
2013-09-04 19:50:00,71.8,64.9,29.95,ENE,65,0.0,0.0,79,0.00,CLR,,0.00,WeatherDisplay:10.37,2013-09-05 00:50:00,
2013-09-04 19:55:00,71.6,64.7,29.95,ENE,67,0.0,0.0,79,0.00,CLR,,0.00,WeatherDisplay:10.37,2013-09-05 00:55:00,
2013-09-04 20:00:00,70.6,64.8,29.95,ENE,68,0.0,0.0,82,0.00,CLR,,0.00,WeatherDisplay:10.37,2013-09-05 01:00:00,
2013-09-04 20:05:00,69.6,64.5,29.96,ENE,71,0.0,0.0,84,0.00,CLR,,0.00,WeatherDisplay:10.37,2013-09-05 01:05:00,
2013-09-04 20:10:00,68.8,64.4,29.96,ENE,73,0.0,0.0,86,0.00,CLR,,0.00,WeatherDisplay:10.37,2013-09-05 01:10:00,
2013-09-04 20:15:00,68.1,64.1,29.96,ENE,71,0.0,0.0,87,0.00,CLR,,0.00,WeatherDisplay:10.37,2013-09-05 01:15:00,
2013-09-04 20:20:00,67.7,64.0,29.97,ENE,74,0.0,0.0,88,0.00,CLR,,0.00,WeatherDisplay:10.37,2013-09-05 01:20:00,
2013-09-04 20:25:00,67.3,63.6,29.97,ENE,76,0.0,0.0,88,0.00,CLR,,0.00,WeatherDisplay:10.37,2013-09-05 01:25:00,
2013-09-04 20:30:00,66.9,63.6,29.97,ENE,74,0.0,0.0,89,0.00,CLR,,0.00,WeatherDisplay:10.37,2013-09-05 01:30:00,
2013-09-04 20:35:00,66.6,63.3,29.97,East,79,0.0,0.0,89,0.00,CLR,,0.00,WeatherDisplay:10.37,2013-09-05 01:35:00,
2013-09-04 20:40:00,66.4,63.4,29.97,ENE,76,0.0,0.0,90,0.00,CLR,,0.00,WeatherDisplay:10.37,2013-09-05 01:40:00,
2013-09-04 20:45:00,66.2,63.5,29.97,ENE,75,0.0,0.0,91,0.00,CLR,,0.00,WeatherDisplay:10.37,2013-09-05 01:45:00,
2013-09-04 20:50:00,66.0,63.3,29.98,East,79,0.0,0.0,91,0.00,CLR,,0.00,WeatherDisplay:10.37,2013-09-05 01:50:00,
2013-09-04 20:55:00,65.8,63.1,29.98,ENE,78,0.0,0.0,91,0.00,CLR,,0.00,WeatherDisplay:10.37,2013-09-05 01:55:00,
2013-09-04 21:00:00,65.6,63.2,29.98,ENE,71,0.0,0.0,92,0.00,CLR,,0.00,WeatherDisplay:10.37,2013-09-05 02:00:00,
2013-09-04 21:05:00,65.3,62.9,29.98,ENE,75,0.0,0.0,92,0.00,CLR,,0.00,WeatherDisplay:10.37,2013-09-05 02:05:00,
2013-09-04 21:10:00,65.2,62.8,29.98,East,79,0.0,0.0,92,0.00,CLR,,0.00,WeatherDisplay:10.37,2013-09-05 02:10:00,
2013-09-04 21:15:00,65.1,62.7,29.98,ENE,77,0.0,0.0,92,0.00,CLR,,0.00,WeatherDisplay:10.37,2013-09-05 02:15:00,
2013-09-04 21:20:00,64.9,62.5,30.00,ENE,72,0.0,0.0,92,0.00,CLR,,0.00,WeatherDisplay:10.37,2013-09-05 02:20:00,
2013-09-04 21:25:00,64.7,62.3,30.00,ENE,72,0.0,0.0,92,0.00,CLR,,0.00,WeatherDisplay:10.37,2013-09-05 02:25:00,
2013-09-04 21:30:00,64.5,62.4,30.00,ENE,70,0.0,0.0,93,0.00,CLR,,0.00,WeatherDisplay:10.37,2013-09-05 02:30:00,
2013-09-04 21:35:00,64.3,62.2,30.00,ENE,71,0.0,0.0,93,0.00,CLR,,0.00,WeatherDisplay:10.37,2013-09-05 02:35:00,
2013-09-04 21:40:00,64.2,62.1,30.00,East,83,0.0,0.0,93,0.00,CLR,,0.00,WeatherDisplay:10.37,2013-09-05 02:40:00,
2013-09-04 21:45:00,64.0,61.9,30.00,East,81,0.0,0.0,93,0.00,CLR,,0.00,WeatherDisplay:10.37,2013-09-05 02:45:00,
2013-09-04 21:50:00,63.9,61.8,30.00,ENE,73,0.0,0.0,93,0.00,CLR,,0.00,WeatherDisplay:10.37,2013-09-05 02:50:00,
2013-09-04 21:55:00,63.9,62.1,30.00,ENE,74,0.0,0.0,94,0.00,CLR,,0.00,WeatherDisplay:10.37,2013-09-05 02:55:00,
2013-09-04 22:00:00,63.7,61.9,30.00,East,79,0.0,0.0,94,0.00,CLR,,0.00,WeatherDisplay:10.37,2013-09-05 03:00:00,
2013-09-04 22:05:00,63.5,61.7,30.00,East,81,0.0,0.0,94,0.00,CLR,,0.00,WeatherDisplay:10.37,2013-09-05 03:05:00,
2013-09-04 22:10:00,63.5,61.7,30.00,ENE,74,0.0,0.0,94,0.00,CLR,,0.00,WeatherDisplay:10.37,2013-09-05 03:10:00,
2013-09-04 22:15:00,63.4,61.9,30.00,ENE,74,0.0,0.0,95,0.00,CLR,,0.00,WeatherDisplay:10.37,2013-09-05 03:15:00,
2013-09-04 22:20:00,63.4,61.9,30.01,ESE,105,0.0,0.0,95,0.00,CLR,,0.00,WeatherDisplay:10.37,2013-09-05 03:20:00,
2013-09-04 22:25:00,63.2,61.7,30.01,SE,138,0.0,0.0,95,0.00,CLR,,0.00,WeatherDisplay:10.37,2013-09-05 03:25:00,
2013-09-04 22:30:00,63.2,61.7,30.01,SE,135,0.0,0.0,95,0.00,CLR,,0.00,WeatherDisplay:10.37,2013-09-05 03:30:00,
2013-09-04 22:35:00,63.1,61.6,30.01,SE,137,0.0,0.0,95,0.00,CLR,,0.00,WeatherDisplay:10.37,2013-09-05 03:35:00,
2013-09-04 22:40:00,63.1,61.9,30.01,SE,140,0.0,0.0,96,0.00,CLR,,0.00,WeatherDisplay:10.37,2013-09-05 03:40:00,
2013-09-04 22:45:00,62.9,61.7,30.01,SE,141,0.0,0.0,96,0.00,CLR,,0.00,WeatherDisplay:10.37,2013-09-05 03:45:00,
2013-09-04 22:50:00,62.9,61.7,30.01,SE,141,0.0,0.0,96,0.00,CLR,,0.00,WeatherDisplay:10.37,2013-09-05 03:50:00,
2013-09-04 22:55:00,62.7,61.6,30.01,SE,140,0.0,0.0,96,0.00,CLR,,0.00,WeatherDisplay:10.37,2013-09-05 03:55:00,
2013-09-04 23:00:00,62.7,61.5,30.01,SE,139,0.0,0.0,96,0.00,CLR,,0.00,WeatherDisplay:10.37,2013-09-05 04:00:00,
2013-09-04 23:05:00,62.7,61.5,30.01,SE,136,0.0,0.0,96,0.00,CLR,,0.00,WeatherDisplay:10.37,2013-09-05 04:05:00,
2013-09-04 23:10:00,62.7,61.5,30.01,SE,129,0.0,0.0,96,0.00,CLR,,0.00,WeatherDisplay:10.37,2013-09-05 04:10:00,
2013-09-04 23:15:00,62.6,61.7,30.01,SE,126,0.0,0.0,97,0.00,CLR,,0.00,WeatherDisplay:10.37,2013-09-05 04:15:00,
2013-09-04 23:20:00,62.6,61.7,30.02,SE,125,0.0,0.0,97,0.00,CLR,,0.00,WeatherDisplay:10.37,2013-09-05 04:20:00,
2013-09-04 23:25:00,62.4,61.5,30.02,SE,124,0.0,0.0,97,0.00,CLR,,0.00,WeatherDisplay:10.37,2013-09-05 04:25:00,
2013-09-04 23:30:00,62.4,61.5,30.02,ESE,123,0.0,0.0,97,0.00,CLR,,0.00,WeatherDisplay:10.37,2013-09-05 04:30:00,
2013-09-04 23:35:00,62.3,61.4,30.03,ESE,121,0.0,0.0,97,0.00,CLR,,0.00,WeatherDisplay:10.37,2013-09-05 04:35:00,
2013-09-04 23:40:00,62.3,61.7,30.03,ESE,104,0.0,0.0,98,0.00,CLR,,0.00,WeatherDisplay:10.37,2013-09-05 04:40:00,
2013-09-04 23:45:00,62.4,61.8,30.03,East,87,0.0,0.0,98,0.00,CLR,,0.00,WeatherDisplay:10.37,2013-09-05 04:45:00,
2013-09-04 23:50:00,62.6,62.0,30.03,East,80,0.0,0.0,98,0.00,CLR,,0.00,WeatherDisplay:10.37,2013-09-05 04:50:00,
2013-09-04 23:55:00,62.6,62.0,30.03,ENE,75,0.0,0.0,98,0.00,CLR,,0.00,WeatherDisplay:10.37,2013-09-05 04:55:00,